sensor_id;sensor_type;location;lat;lon;timestamp;P1;durP1;ratioP1;P2;durP2;ratioP2
70049;SDS011;57391;51.306;22.680;2023-03-07T00:00:26;21.10;;;10.00;;
70049;SDS011;57391;51.306;22.680;2023-03-07T00:03:15;17.10;;;10.20;;
70049;SDS011;57391;51.306;22.680;2023-03-07T00:05:43;21.00;;;11.20;;
70049;SDS011;57391;51.306;22.680;2023-03-07T00:08:10;21.20;;;10.60;;
70049;SDS011;57391;51.306;22.680;2023-03-07T00:10:38;22.40;;;10.70;;
70049;SDS011;57391;51.306;22.680;2023-03-07T00:13:05;19.90;;;10.40;;
70049;SDS011;57391;51.306;22.680;2023-03-07T00:15:32;19.50;;;9.30;;
70049;SDS011;57391;51.306;22.680;2023-03-07T00:17:59;20.70;;;10.80;;
70049;SDS011;57391;51.306;22.680;2023-03-07T00:20:27;19.50;;;10.80;;
70049;SDS011;57391;51.306;22.680;2023-03-07T00:22:54;20.20;;;11.10;;
70049;SDS011;57391;51.306;22.680;2023-03-07T00:25:21;19.00;;;10.30;;
70049;SDS011;57391;51.306;22.680;2023-03-07T00:27:48;22.00;;;10.00;;
70049;SDS011;57391;51.306;22.680;2023-03-07T00:30:16;21.70;;;10.10;;
70049;SDS011;57391;51.306;22.680;2023-03-07T00:32:45;15.30;;;7.70;;
70049;SDS011;57391;51.306;22.680;2023-03-07T00:35:12;18.80;;;9.00;;
70049;SDS011;57391;51.306;22.680;2023-03-07T00:37:39;21.40;;;11.00;;
70049;SDS011;57391;51.306;22.680;2023-03-07T00:40:06;19.80;;;10.20;;
70049;SDS011;57391;51.306;22.680;2023-03-07T00:42:35;20.80;;;10.30;;
70049;SDS011;57391;51.306;22.680;2023-03-07T00:45:08;21.90;;;10.20;;
70049;SDS011;57391;51.306;22.680;2023-03-07T00:47:37;26.00;;;12.10;;
70049;SDS011;57391;51.306;22.680;2023-03-07T00:50:06;21.80;;;10.50;;
70049;SDS011;57391;51.306;22.680;2023-03-07T00:52:34;22.10;;;10.70;;
70049;SDS011;57391;51.306;22.680;2023-03-07T00:55:01;22.90;;;11.80;;
70049;SDS011;57391;51.306;22.680;2023-03-07T00:57:28;24.00;;;12.50;;
70049;SDS011;57391;51.306;22.680;2023-03-07T00:59:55;24.30;;;11.80;;
70049;SDS011;57391;51.306;22.680;2023-03-07T01:02:22;24.00;;;12.80;;
70049;SDS011;57391;51.306;22.680;2023-03-07T01:04:50;22.50;;;11.10;;
70049;SDS011;57391;51.306;22.680;2023-03-07T01:07:18;23.10;;;11.40;;
70049;SDS011;57391;51.306;22.680;2023-03-07T01:09:49;23.30;;;11.70;;
70049;SDS011;57391;51.306;22.680;2023-03-07T01:12:18;23.20;;;11.10;;
70049;SDS011;57391;51.306;22.680;2023-03-07T01:14:49;19.50;;;9.70;;
70049;SDS011;57391;51.306;22.680;2023-03-07T01:17:21;23.00;;;11.60;;
70049;SDS011;57391;51.306;22.680;2023-03-07T01:19:48;21.40;;;11.00;;
70049;SDS011;57391;51.306;22.680;2023-03-07T01:22:18;26.50;;;12.40;;
70049;SDS011;57391;51.306;22.680;2023-03-07T01:24:46;23.20;;;11.80;;
70049;SDS011;57391;51.306;22.680;2023-03-07T01:27:14;22.00;;;12.20;;
70049;SDS011;57391;51.306;22.680;2023-03-07T01:29:43;21.30;;;11.30;;
70049;SDS011;57391;51.306;22.680;2023-03-07T01:32:10;24.70;;;12.70;;
70049;SDS011;57391;51.306;22.680;2023-03-07T01:34:38;22.10;;;12.20;;
70049;SDS011;57391;51.306;22.680;2023-03-07T01:37:08;25.20;;;12.40;;
70049;SDS011;57391;51.306;22.680;2023-03-07T01:39:36;21.50;;;10.10;;
70049;SDS011;57391;51.306;22.680;2023-03-07T01:42:07;22.90;;;11.40;;
70049;SDS011;57391;51.306;22.680;2023-03-07T01:45:00;24.10;;;12.30;;
70049;SDS011;57391;51.306;22.680;2023-03-07T01:47:43;22.40;;;11.00;;
70049;SDS011;57391;51.306;22.680;2023-03-07T01:50:16;23.50;;;11.20;;
70049;SDS011;57391;51.306;22.680;2023-03-07T01:52:53;25.10;;;12.10;;
70049;SDS011;57391;51.306;22.680;2023-03-07T01:55:33;23.40;;;11.20;;
70049;SDS011;57391;51.306;22.680;2023-03-07T01:58:17;30.20;;;13.30;;
70049;SDS011;57391;51.306;22.680;2023-03-07T02:00:44;24.40;;;12.30;;
70049;SDS011;57391;51.306;22.680;2023-03-07T02:03:16;29.10;;;13.70;;
70049;SDS011;57391;51.306;22.680;2023-03-07T02:05:59;28.70;;;13.60;;
70049;SDS011;57391;51.306;22.680;2023-03-07T02:08:33;22.70;;;12.00;;
70049;SDS011;57391;51.306;22.680;2023-03-07T02:11:04;24.60;;;12.30;;
70049;SDS011;57391;51.306;22.680;2023-03-07T02:13:31;25.10;;;13.80;;
70049;SDS011;57391;51.306;22.680;2023-03-07T02:16:01;25.10;;;12.60;;
70049;SDS011;57391;51.306;22.680;2023-03-07T02:18:32;30.20;;;14.40;;
70049;SDS011;57391;51.306;22.680;2023-03-07T02:24:41;29.00;;;13.10;;
70049;SDS011;57391;51.306;22.680;2023-03-07T02:27:14;26.50;;;13.00;;
70049;SDS011;57391;51.306;22.680;2023-03-07T02:29:42;24.70;;;12.60;;
70049;SDS011;57391;51.306;22.680;2023-03-07T02:32:10;29.60;;;13.90;;
70049;SDS011;57391;51.306;22.680;2023-03-07T02:34:37;25.80;;;12.80;;
70049;SDS011;57391;51.306;22.680;2023-03-07T02:37:28;27.40;;;12.90;;
70049;SDS011;57391;51.306;22.680;2023-03-07T02:40:03;26.60;;;12.80;;
70049;SDS011;57391;51.306;22.680;2023-03-07T02:42:38;27.20;;;12.50;;
70049;SDS011;57391;51.306;22.680;2023-03-07T02:45:13;35.00;;;14.90;;
70049;SDS011;57391;51.306;22.680;2023-03-07T02:47:43;34.90;;;14.20;;
70049;SDS011;57391;51.306;22.680;2023-03-07T02:50:14;45.80;;;18.10;;
70049;SDS011;57391;51.306;22.680;2023-03-07T02:52:44;40.50;;;18.00;;
70049;SDS011;57391;51.306;22.680;2023-03-07T02:55:11;39.20;;;16.40;;
70049;SDS011;57391;51.306;22.680;2023-03-07T02:57:42;36.70;;;16.00;;
70049;SDS011;57391;51.306;22.680;2023-03-07T03:00:13;32.50;;;14.40;;
70049;SDS011;57391;51.306;22.680;2023-03-07T03:02:41;33.30;;;14.90;;
70049;SDS011;57391;51.306;22.680;2023-03-07T03:05:08;29.70;;;14.70;;
70049;SDS011;57391;51.306;22.680;2023-03-07T03:07:37;27.80;;;13.70;;
70049;SDS011;57391;51.306;22.680;2023-03-07T03:10:05;29.10;;;14.00;;
70049;SDS011;57391;51.306;22.680;2023-03-07T03:12:33;30.00;;;14.20;;
70049;SDS011;57391;51.306;22.680;2023-03-07T03:15:01;31.80;;;14.00;;
70049;SDS011;57391;51.306;22.680;2023-03-07T03:17:29;31.90;;;15.20;;
70049;SDS011;57391;51.306;22.680;2023-03-07T03:19:57;30.60;;;14.20;;
70049;SDS011;57391;51.306;22.680;2023-03-07T03:22:24;34.80;;;14.70;;
70049;SDS011;57391;51.306;22.680;2023-03-07T03:24:53;30.40;;;13.80;;
70049;SDS011;57391;51.306;22.680;2023-03-07T03:27:20;35.80;;;16.10;;
70049;SDS011;57391;51.306;22.680;2023-03-07T03:29:53;34.90;;;15.60;;
70049;SDS011;57391;51.306;22.680;2023-03-07T03:32:20;28.10;;;13.40;;
70049;SDS011;57391;51.306;22.680;2023-03-07T03:34:48;28.70;;;13.20;;
70049;SDS011;57391;51.306;22.680;2023-03-07T03:37:15;27.10;;;13.30;;
70049;SDS011;57391;51.306;22.680;2023-03-07T03:39:43;28.80;;;12.80;;
70049;SDS011;57391;51.306;22.680;2023-03-07T03:42:12;28.70;;;12.30;;
70049;SDS011;57391;51.306;22.680;2023-03-07T03:44:39;30.40;;;13.90;;
70049;SDS011;57391;51.306;22.680;2023-03-07T03:47:07;25.30;;;11.60;;
70049;SDS011;57391;51.306;22.680;2023-03-07T03:49:35;25.80;;;12.00;;
70049;SDS011;57391;51.306;22.680;2023-03-07T03:52:04;26.40;;;12.50;;
70049;SDS011;57391;51.306;22.680;2023-03-07T03:54:32;29.80;;;13.00;;
70049;SDS011;57391;51.306;22.680;2023-03-07T03:57:00;27.40;;;12.30;;
70049;SDS011;57391;51.306;22.680;2023-03-07T03:59:29;24.40;;;11.40;;
70049;SDS011;57391;51.306;22.680;2023-03-07T04:01:56;29.20;;;13.10;;
70049;SDS011;57391;51.306;22.680;2023-03-07T04:04:24;25.70;;;12.40;;
70049;SDS011;57391;51.306;22.680;2023-03-07T04:06:54;27.30;;;12.60;;
70049;SDS011;57391;51.306;22.680;2023-03-07T04:09:21;27.20;;;13.20;;
70049;SDS011;57391;51.306;22.680;2023-03-07T04:11:48;29.40;;;11.70;;
70049;SDS011;57391;51.306;22.680;2023-03-07T04:14:16;32.20;;;13.30;;
70049;SDS011;57391;51.306;22.680;2023-03-07T04:16:43;27.00;;;12.60;;
70049;SDS011;57391;51.306;22.680;2023-03-07T04:19:10;28.90;;;12.40;;
70049;SDS011;57391;51.306;22.680;2023-03-07T04:21:39;29.70;;;13.00;;
70049;SDS011;57391;51.306;22.680;2023-03-07T04:24:10;29.60;;;12.60;;
70049;SDS011;57391;51.306;22.680;2023-03-07T04:26:37;27.30;;;12.70;;
70049;SDS011;57391;51.306;22.680;2023-03-07T04:29:04;26.80;;;12.30;;
70049;SDS011;57391;51.306;22.680;2023-03-07T04:31:35;29.20;;;13.60;;
70049;SDS011;57391;51.306;22.680;2023-03-07T04:34:04;31.80;;;14.50;;
70049;SDS011;57391;51.306;22.680;2023-03-07T04:36:31;30.60;;;13.50;;
70049;SDS011;57391;51.306;22.680;2023-03-07T04:38:58;29.00;;;12.70;;
70049;SDS011;57391;51.306;22.680;2023-03-07T04:41:26;26.40;;;12.30;;
70049;SDS011;57391;51.306;22.680;2023-03-07T04:44:04;25.40;;;12.20;;
70049;SDS011;57391;51.306;22.680;2023-03-07T04:46:31;26.20;;;12.20;;
70049;SDS011;57391;51.306;22.680;2023-03-07T04:48:58;26.30;;;12.60;;
70049;SDS011;57391;51.306;22.680;2023-03-07T04:51:26;24.60;;;11.90;;
70049;SDS011;57391;51.306;22.680;2023-03-07T04:53:53;24.30;;;11.10;;
70049;SDS011;57391;51.306;22.680;2023-03-07T04:56:21;25.40;;;11.40;;
70049;SDS011;57391;51.306;22.680;2023-03-07T04:58:48;23.10;;;10.70;;
70049;SDS011;57391;51.306;22.680;2023-03-07T05:01:18;20.50;;;10.10;;
70049;SDS011;57391;51.306;22.680;2023-03-07T05:03:45;23.80;;;10.30;;
70049;SDS011;57391;51.306;22.680;2023-03-07T05:06:14;24.20;;;10.30;;
70049;SDS011;57391;51.306;22.680;2023-03-07T05:08:46;24.40;;;10.10;;
70049;SDS011;57391;51.306;22.680;2023-03-07T05:11:15;20.40;;;9.90;;
70049;SDS011;57391;51.306;22.680;2023-03-07T05:13:44;21.20;;;9.80;;
70049;SDS011;57391;51.306;22.680;2023-03-07T05:16:12;25.70;;;11.10;;
70049;SDS011;57391;51.306;22.680;2023-03-07T05:18:39;25.10;;;10.40;;
70049;SDS011;57391;51.306;22.680;2023-03-07T05:21:06;24.40;;;10.70;;
70049;SDS011;57391;51.306;22.680;2023-03-07T05:23:34;25.60;;;11.80;;
70049;SDS011;57391;51.306;22.680;2023-03-07T05:26:03;25.60;;;10.60;;
70049;SDS011;57391;51.306;22.680;2023-03-07T05:28:30;24.70;;;10.60;;
70049;SDS011;57391;51.306;22.680;2023-03-07T05:30:57;24.20;;;11.30;;
70049;SDS011;57391;51.306;22.680;2023-03-07T05:33:24;28.60;;;12.30;;
70049;SDS011;57391;51.306;22.680;2023-03-07T05:35:52;27.40;;;12.40;;
70049;SDS011;57391;51.306;22.680;2023-03-07T05:38:22;28.70;;;12.40;;
70049;SDS011;57391;51.306;22.680;2023-03-07T05:40:49;24.90;;;10.70;;
70049;SDS011;57391;51.306;22.680;2023-03-07T05:43:16;26.10;;;10.60;;
70049;SDS011;57391;51.306;22.680;2023-03-07T05:45:43;27.50;;;10.80;;
70049;SDS011;57391;51.306;22.680;2023-03-07T05:48:11;27.30;;;11.00;;
70049;SDS011;57391;51.306;22.680;2023-03-07T05:50:40;29.50;;;10.70;;
70049;SDS011;57391;51.306;22.680;2023-03-07T05:53:08;24.00;;;10.70;;
70049;SDS011;57391;51.306;22.680;2023-03-07T05:55:35;25.80;;;11.30;;
70049;SDS011;57391;51.306;22.680;2023-03-07T05:58:03;28.00;;;11.80;;
70049;SDS011;57391;51.306;22.680;2023-03-07T06:00:30;26.00;;;10.30;;
70049;SDS011;57391;51.306;22.680;2023-03-07T06:03:03;25.50;;;11.40;;
70049;SDS011;57391;51.306;22.680;2023-03-07T06:05:31;24.40;;;10.60;;
70049;SDS011;57391;51.306;22.680;2023-03-07T06:07:58;26.80;;;10.80;;
70049;SDS011;57391;51.306;22.680;2023-03-07T06:10:25;25.20;;;11.30;;
70049;SDS011;57391;51.306;22.680;2023-03-07T06:12:53;26.30;;;11.70;;
70049;SDS011;57391;51.306;22.680;2023-03-07T06:15:21;26.70;;;11.80;;
70049;SDS011;57391;51.306;22.680;2023-03-07T06:17:50;28.90;;;12.80;;
70049;SDS011;57391;51.306;22.680;2023-03-07T06:20:20;27.60;;;12.20;;
70049;SDS011;57391;51.306;22.680;2023-03-07T06:22:47;30.40;;;12.20;;
70049;SDS011;57391;51.306;22.680;2023-03-07T06:25:15;25.70;;;10.90;;
70049;SDS011;57391;51.306;22.680;2023-03-07T06:27:43;23.60;;;10.70;;
70049;SDS011;57391;51.306;22.680;2023-03-07T06:30:11;25.80;;;11.10;;
70049;SDS011;57391;51.306;22.680;2023-03-07T06:32:38;23.80;;;11.30;;
70049;SDS011;57391;51.306;22.680;2023-03-07T06:35:06;22.90;;;11.70;;
70049;SDS011;57391;51.306;22.680;2023-03-07T06:37:35;25.10;;;11.90;;
70049;SDS011;57391;51.306;22.680;2023-03-07T06:40:03;24.50;;;11.00;;
70049;SDS011;57391;51.306;22.680;2023-03-07T06:42:32;25.60;;;11.40;;
70049;SDS011;57391;51.306;22.680;2023-03-07T06:44:59;26.80;;;11.30;;
70049;SDS011;57391;51.306;22.680;2023-03-07T06:47:28;25.60;;;11.60;;
70049;SDS011;57391;51.306;22.680;2023-03-07T06:49:55;23.80;;;11.70;;
70049;SDS011;57391;51.306;22.680;2023-03-07T06:52:23;27.30;;;10.90;;
70049;SDS011;57391;51.306;22.680;2023-03-07T06:54:51;21.90;;;10.50;;
70049;SDS011;57391;51.306;22.680;2023-03-07T06:57:19;28.00;;;12.10;;
70049;SDS011;57391;51.306;22.680;2023-03-07T06:59:46;24.50;;;10.80;;
70049;SDS011;57391;51.306;22.680;2023-03-07T07:02:13;26.80;;;11.70;;
70049;SDS011;57391;51.306;22.680;2023-03-07T07:04:40;24.10;;;12.10;;
70049;SDS011;57391;51.306;22.680;2023-03-07T07:07:08;25.50;;;11.70;;
70049;SDS011;57391;51.306;22.680;2023-03-07T07:09:36;25.30;;;11.70;;
70049;SDS011;57391;51.306;22.680;2023-03-07T07:12:04;27.30;;;12.70;;
70049;SDS011;57391;51.306;22.680;2023-03-07T07:14:32;27.50;;;11.70;;
70049;SDS011;57391;51.306;22.680;2023-03-07T07:17:00;25.30;;;11.40;;
70049;SDS011;57391;51.306;22.680;2023-03-07T07:19:28;26.20;;;11.80;;
70049;SDS011;57391;51.306;22.680;2023-03-07T07:21:59;26.60;;;12.90;;
70049;SDS011;57391;51.306;22.680;2023-03-07T07:24:31;27.60;;;13.50;;
70049;SDS011;57391;51.306;22.680;2023-03-07T07:27:00;28.20;;;12.90;;
70049;SDS011;57391;51.306;22.680;2023-03-07T07:29:30;30.00;;;13.90;;
70049;SDS011;57391;51.306;22.680;2023-03-07T07:32:00;32.90;;;13.50;;
70049;SDS011;57391;51.306;22.680;2023-03-07T07:34:31;32.70;;;14.80;;
70049;SDS011;57391;51.306;22.680;2023-03-07T07:37:02;29.80;;;14.10;;
70049;SDS011;57391;51.306;22.680;2023-03-07T07:39:33;33.60;;;15.10;;
70049;SDS011;57391;51.306;22.680;2023-03-07T07:42:00;31.80;;;14.70;;
70049;SDS011;57391;51.306;22.680;2023-03-07T07:44:30;34.80;;;16.20;;
70049;SDS011;57391;51.306;22.680;2023-03-07T07:46:59;33.60;;;14.60;;
70049;SDS011;57391;51.306;22.680;2023-03-07T07:49:27;38.40;;;17.20;;
70049;SDS011;57391;51.306;22.680;2023-03-07T07:51:54;35.30;;;14.90;;
70049;SDS011;57391;51.306;22.680;2023-03-07T07:54:22;35.90;;;16.10;;
70049;SDS011;57391;51.306;22.680;2023-03-07T07:56:49;32.50;;;16.10;;
70049;SDS011;57391;51.306;22.680;2023-03-07T07:59:17;37.60;;;17.10;;
70049;SDS011;57391;51.306;22.680;2023-03-07T08:01:45;39.60;;;17.80;;
70049;SDS011;57391;51.306;22.680;2023-03-07T08:04:11;42.20;;;18.40;;
70049;SDS011;57391;51.306;22.680;2023-03-07T08:06:38;44.60;;;21.50;;
70049;SDS011;57391;51.306;22.680;2023-03-07T08:09:05;47.30;;;21.80;;
70049;SDS011;57391;51.306;22.680;2023-03-07T08:11:33;43.80;;;20.50;;
70049;SDS011;57391;51.306;22.680;2023-03-07T08:14:01;44.90;;;20.70;;
70049;SDS011;57391;51.306;22.680;2023-03-07T08:16:29;43.20;;;20.60;;
70049;SDS011;57391;51.306;22.680;2023-03-07T08:18:56;42.90;;;19.80;;
70049;SDS011;57391;51.306;22.680;2023-03-07T08:21:24;32.60;;;15.20;;
70049;SDS011;57391;51.306;22.680;2023-03-07T08:23:52;40.30;;;18.20;;
70049;SDS011;57391;51.306;22.680;2023-03-07T08:26:21;34.30;;;15.30;;
70049;SDS011;57391;51.306;22.680;2023-03-07T08:28:49;42.00;;;18.50;;
70049;SDS011;57391;51.306;22.680;2023-03-07T08:31:19;39.50;;;18.20;;
70049;SDS011;57391;51.306;22.680;2023-03-07T08:33:52;33.90;;;15.90;;
70049;SDS011;57391;51.306;22.680;2023-03-07T08:36:19;36.20;;;17.40;;
70049;SDS011;57391;51.306;22.680;2023-03-07T08:38:49;39.40;;;18.20;;
70049;SDS011;57391;51.306;22.680;2023-03-07T08:41:19;29.00;;;12.90;;
70049;SDS011;57391;51.306;22.680;2023-03-07T08:43:48;37.80;;;16.70;;
70049;SDS011;57391;51.306;22.680;2023-03-07T08:46:15;38.50;;;18.10;;
70049;SDS011;57391;51.306;22.680;2023-03-07T08:48:43;36.80;;;18.90;;
70049;SDS011;57391;51.306;22.680;2023-03-07T08:51:12;37.50;;;17.40;;
70049;SDS011;57391;51.306;22.680;2023-03-07T08:53:42;35.90;;;17.50;;
70049;SDS011;57391;51.306;22.680;2023-03-07T08:56:12;37.40;;;17.60;;
70049;SDS011;57391;51.306;22.680;2023-03-07T08:58:41;34.80;;;17.00;;
70049;SDS011;57391;51.306;22.680;2023-03-07T09:01:09;33.90;;;16.90;;
70049;SDS011;57391;51.306;22.680;2023-03-07T09:03:38;36.80;;;18.20;;
70049;SDS011;57391;51.306;22.680;2023-03-07T09:06:06;33.00;;;16.80;;
70049;SDS011;57391;51.306;22.680;2023-03-07T09:08:34;35.60;;;16.70;;
70049;SDS011;57391;51.306;22.680;2023-03-07T09:11:01;38.60;;;17.90;;
70049;SDS011;57391;51.306;22.680;2023-03-07T09:13:31;43.10;;;19.00;;
70049;SDS011;57391;51.306;22.680;2023-03-07T09:15:58;36.10;;;17.40;;
70049;SDS011;57391;51.306;22.680;2023-03-07T09:18:25;39.10;;;18.60;;
70049;SDS011;57391;51.306;22.680;2023-03-07T09:20:52;34.50;;;15.90;;
70049;SDS011;57391;51.306;22.680;2023-03-07T09:23:19;35.20;;;16.30;;
70049;SDS011;57391;51.306;22.680;2023-03-07T09:25:46;33.70;;;16.10;;
70049;SDS011;57391;51.306;22.680;2023-03-07T09:28:13;36.90;;;17.90;;
70049;SDS011;57391;51.306;22.680;2023-03-07T09:30:40;33.10;;;16.30;;
70049;SDS011;57391;51.306;22.680;2023-03-07T09:33:08;35.10;;;16.90;;
70049;SDS011;57391;51.306;22.680;2023-03-07T09:35:37;36.20;;;17.00;;
70049;SDS011;57391;51.306;22.680;2023-03-07T09:38:04;37.70;;;17.70;;
70049;SDS011;57391;51.306;22.680;2023-03-07T09:40:32;41.20;;;19.70;;
70049;SDS011;57391;51.306;22.680;2023-03-07T09:43:18;40.90;;;19.80;;
70049;SDS011;57391;51.306;22.680;2023-03-07T09:46:05;40.30;;;20.20;;
70049;SDS011;57391;51.306;22.680;2023-03-07T09:51:35;44.80;;;21.70;;
70049;SDS011;57391;51.306;22.680;2023-03-07T09:54:15;44.70;;;21.20;;
70049;SDS011;57391;51.306;22.680;2023-03-07T09:56:51;36.90;;;19.00;;
70049;SDS011;57391;51.306;22.680;2023-03-07T10:02:33;34.30;;;16.50;;
70049;SDS011;57391;51.306;22.680;2023-03-07T10:08:19;32.40;;;15.10;;
70049;SDS011;57391;51.306;22.680;2023-03-07T10:13:57;39.50;;;19.80;;
70049;SDS011;57391;51.306;22.680;2023-03-07T10:25:26;41.70;;;19.50;;
70049;SDS011;57391;51.306;22.680;2023-03-07T10:28:22;39.80;;;18.30;;
70049;SDS011;57391;51.306;22.680;2023-03-07T10:30:59;36.40;;;18.80;;
70049;SDS011;57391;51.306;22.680;2023-03-07T10:33:39;42.30;;;22.20;;
70049;SDS011;57391;51.306;22.680;2023-03-07T10:36:14;39.10;;;20.30;;
70049;SDS011;57391;51.306;22.680;2023-03-07T10:41:23;38.20;;;18.80;;
70049;SDS011;57391;51.306;22.680;2023-03-07T10:43:51;44.10;;;20.90;;
70049;SDS011;57391;51.306;22.680;2023-03-07T10:46:26;37.20;;;18.10;;
70049;SDS011;57391;51.306;22.680;2023-03-07T10:49:12;39.00;;;19.40;;
70049;SDS011;57391;51.306;22.680;2023-03-07T10:52:11;35.30;;;16.90;;
70049;SDS011;57391;51.306;22.680;2023-03-07T10:54:42;38.80;;;19.50;;
70049;SDS011;57391;51.306;22.680;2023-03-07T10:57:17;33.60;;;15.60;;
70049;SDS011;57391;51.306;22.680;2023-03-07T10:59:52;33.30;;;17.10;;
70049;SDS011;57391;51.306;22.680;2023-03-07T11:02:42;36.50;;;19.00;;
70049;SDS011;57391;51.306;22.680;2023-03-07T11:05:31;28.80;;;14.40;;
70049;SDS011;57391;51.306;22.680;2023-03-07T11:08:19;31.80;;;17.60;;
70049;SDS011;57391;51.306;22.680;2023-03-07T11:11:02;34.90;;;17.50;;
70049;SDS011;57391;51.306;22.680;2023-03-07T11:13:30;30.60;;;15.20;;
70049;SDS011;57391;51.306;22.680;2023-03-07T11:16:29;30.20;;;14.60;;
70049;SDS011;57391;51.306;22.680;2023-03-07T11:18:56;31.80;;;16.30;;
70049;SDS011;57391;51.306;22.680;2023-03-07T11:21:31;28.70;;;15.20;;
70049;SDS011;57391;51.306;22.680;2023-03-07T11:24:25;28.00;;;12.90;;
70049;SDS011;57391;51.306;22.680;2023-03-07T11:26:56;30.30;;;16.00;;
70049;SDS011;57391;51.306;22.680;2023-03-07T11:29:25;28.20;;;15.00;;
70049;SDS011;57391;51.306;22.680;2023-03-07T11:32:13;35.30;;;18.60;;
70049;SDS011;57391;51.306;22.680;2023-03-07T11:34:52;25.60;;;14.50;;
70049;SDS011;57391;51.306;22.680;2023-03-07T11:37:38;26.60;;;13.90;;
70049;SDS011;57391;51.306;22.680;2023-03-07T11:48:06;22.80;;;12.50;;
70049;SDS011;57391;51.306;22.680;2023-03-07T11:50:52;20.50;;;11.10;;
70049;SDS011;57391;51.306;22.680;2023-03-07T12:01:52;22.90;;;11.80;;
70049;SDS011;57391;51.306;22.680;2023-03-07T12:07:31;24.50;;;13.60;;
70049;SDS011;57391;51.306;22.680;2023-03-07T12:13:14;25.60;;;12.80;;
70049;SDS011;57391;51.306;22.680;2023-03-07T12:16:21;23.90;;;13.10;;
70049;SDS011;57391;51.306;22.680;2023-03-07T12:27:41;22.30;;;11.70;;
70049;SDS011;57391;51.306;22.680;2023-03-07T12:30:32;23.30;;;13.00;;
70049;SDS011;57391;51.306;22.680;2023-03-07T12:33:25;20.80;;;11.20;;
70049;SDS011;57391;51.306;22.680;2023-03-07T12:35:58;24.70;;;12.50;;
70049;SDS011;57391;51.306;22.680;2023-03-07T12:38:45;22.40;;;11.30;;
70049;SDS011;57391;51.306;22.680;2023-03-07T12:44:34;22.60;;;12.60;;
70049;SDS011;57391;51.306;22.680;2023-03-07T12:47:28;21.50;;;10.60;;
70049;SDS011;57391;51.306;22.680;2023-03-07T12:53:36;19.00;;;9.90;;
70049;SDS011;57391;51.306;22.680;2023-03-07T12:59:05;19.00;;;10.40;;
70049;SDS011;57391;51.306;22.680;2023-03-07T13:07:03;17.60;;;9.60;;
70049;SDS011;57391;51.306;22.680;2023-03-07T13:09:32;16.40;;;9.10;;
70049;SDS011;57391;51.306;22.680;2023-03-07T13:14:50;19.50;;;10.10;;
70049;SDS011;57391;51.306;22.680;2023-03-07T13:19:54;19.60;;;9.70;;
70049;SDS011;57391;51.306;22.680;2023-03-07T13:28:04;15.80;;;8.70;;
70049;SDS011;57391;51.306;22.680;2023-03-07T13:33:46;19.00;;;10.20;;
70049;SDS011;57391;51.306;22.680;2023-03-07T13:36:34;26.00;;;10.90;;
70049;SDS011;57391;51.306;22.680;2023-03-07T13:39:36;16.20;;;8.70;;
70049;SDS011;57391;51.306;22.680;2023-03-07T13:43:30;18.40;;;10.10;;
70049;SDS011;57391;51.306;22.680;2023-03-07T13:53:45;22.00;;;10.90;;
70049;SDS011;57391;51.306;22.680;2023-03-07T14:01:42;18.30;;;9.50;;
70049;SDS011;57391;51.306;22.680;2023-03-07T14:04:37;16.00;;;8.50;;
70049;SDS011;57391;51.306;22.680;2023-03-07T14:07:32;19.40;;;8.70;;
70049;SDS011;57391;51.306;22.680;2023-03-07T14:10:09;20.40;;;10.20;;
70049;SDS011;57391;51.306;22.680;2023-03-07T14:15:56;15.80;;;7.70;;
70049;SDS011;57391;51.306;22.680;2023-03-07T14:22:03;18.20;;;8.70;;
70049;SDS011;57391;51.306;22.680;2023-03-07T14:25:13;19.30;;;9.10;;
70049;SDS011;57391;51.306;22.680;2023-03-07T14:28:17;19.80;;;8.60;;
70049;SDS011;57391;51.306;22.680;2023-03-07T14:30:58;23.10;;;10.00;;
70049;SDS011;57391;51.306;22.680;2023-03-07T14:33:35;16.50;;;9.20;;
70049;SDS011;57391;51.306;22.680;2023-03-07T14:36:20;15.30;;;7.90;;
70049;SDS011;57391;51.306;22.680;2023-03-07T14:38:53;21.20;;;9.90;;
70049;SDS011;57391;51.306;22.680;2023-03-07T14:52:55;14.60;;;6.80;;
70049;SDS011;57391;51.306;22.680;2023-03-07T14:55:38;14.10;;;7.60;;
70049;SDS011;57391;51.306;22.680;2023-03-07T14:58:15;16.80;;;8.30;;
70049;SDS011;57391;51.306;22.680;2023-03-07T15:01:02;18.40;;;8.80;;
70049;SDS011;57391;51.306;22.680;2023-03-07T15:03:52;17.80;;;8.30;;
70049;SDS011;57391;51.306;22.680;2023-03-07T15:06:25;18.70;;;10.00;;
70049;SDS011;57391;51.306;22.680;2023-03-07T15:08:57;21.20;;;10.20;;
70049;SDS011;57391;51.306;22.680;2023-03-07T15:11:39;20.00;;;10.40;;
70049;SDS011;57391;51.306;22.680;2023-03-07T15:14:14;23.00;;;10.70;;
70049;SDS011;57391;51.306;22.680;2023-03-07T15:16:48;20.70;;;10.10;;
70049;SDS011;57391;51.306;22.680;2023-03-07T15:22:00;24.70;;;11.10;;
70049;SDS011;57391;51.306;22.680;2023-03-07T15:24:32;19.20;;;8.60;;
70049;SDS011;57391;51.306;22.680;2023-03-07T15:27:02;20.70;;;10.20;;
70049;SDS011;57391;51.306;22.680;2023-03-07T15:29:31;20.80;;;10.30;;
70049;SDS011;57391;51.306;22.680;2023-03-07T15:32:02;19.90;;;10.10;;
70049;SDS011;57391;51.306;22.680;2023-03-07T15:34:37;22.60;;;11.50;;
70049;SDS011;57391;51.306;22.680;2023-03-07T15:37:19;19.20;;;9.80;;
70049;SDS011;57391;51.306;22.680;2023-03-07T15:42:57;20.50;;;10.70;;
70049;SDS011;57391;51.306;22.680;2023-03-07T15:45:59;22.80;;;10.60;;
70049;SDS011;57391;51.306;22.680;2023-03-07T15:48:47;21.80;;;10.20;;
70049;SDS011;57391;51.306;22.680;2023-03-07T15:51:19;24.80;;;11.20;;
70049;SDS011;57391;51.306;22.680;2023-03-07T15:54:29;26.50;;;11.60;;
70049;SDS011;57391;51.306;22.680;2023-03-07T15:57:00;23.70;;;10.40;;
70049;SDS011;57391;51.306;22.680;2023-03-07T15:59:34;19.90;;;9.80;;
70049;SDS011;57391;51.306;22.680;2023-03-07T16:05:25;25.40;;;12.00;;
70049;SDS011;57391;51.306;22.680;2023-03-07T16:07:58;25.80;;;12.40;;
70049;SDS011;57391;51.306;22.680;2023-03-07T16:10:29;28.80;;;13.40;;
70049;SDS011;57391;51.306;22.680;2023-03-07T16:12:58;32.70;;;15.80;;
70049;SDS011;57391;51.306;22.680;2023-03-07T16:15:27;26.50;;;12.10;;
70049;SDS011;57391;51.306;22.680;2023-03-07T16:17:55;27.60;;;12.80;;
70049;SDS011;57391;51.306;22.680;2023-03-07T16:20:27;25.10;;;12.80;;
70049;SDS011;57391;51.306;22.680;2023-03-07T16:22:54;24.80;;;12.60;;
70049;SDS011;57391;51.306;22.680;2023-03-07T16:25:23;27.30;;;12.50;;
70049;SDS011;57391;51.306;22.680;2023-03-07T16:27:55;29.80;;;13.60;;
70049;SDS011;57391;51.306;22.680;2023-03-07T16:30:27;26.50;;;13.10;;
70049;SDS011;57391;51.306;22.680;2023-03-07T16:32:54;33.00;;;15.50;;
70049;SDS011;57391;51.306;22.680;2023-03-07T16:35:24;37.30;;;17.40;;
70049;SDS011;57391;51.306;22.680;2023-03-07T16:37:54;40.20;;;18.80;;
70049;SDS011;57391;51.306;22.680;2023-03-07T16:40:22;33.70;;;16.30;;
70049;SDS011;57391;51.306;22.680;2023-03-07T16:42:51;28.30;;;14.80;;
70049;SDS011;57391;51.306;22.680;2023-03-07T16:45:26;33.20;;;17.00;;
70049;SDS011;57391;51.306;22.680;2023-03-07T16:47:56;28.30;;;12.80;;